createdAt,value
2018-11-27T00:00:41.766Z,23.10
2018-11-27T00:06:14.703Z,26.40
2018-11-27T00:14:48.466Z,24.70
2018-11-27T00:17:16.851Z,25.40
2018-11-27T00:19:45.389Z,25.93
2018-11-27T00:22:21.048Z,23.03
2018-11-27T00:27:53.574Z,23.37
2018-11-27T00:36:23.191Z,26.40
2018-11-27T00:38:52.718Z,25.60
2018-11-27T00:41:22.430Z,32.67
2018-11-27T00:43:52.273Z,25.93
2018-11-27T00:46:20.988Z,23.43
2018-11-27T00:48:51.532Z,25.10
2018-11-27T00:54:16.751Z,31.00
2018-11-27T00:56:46.729Z,27.80
2018-11-27T01:02:29.518Z,28.23
2018-11-27T01:04:59.705Z,26.43
2018-11-27T01:07:31.070Z,26.47
2018-11-27T01:10:01.746Z,28.03
2018-11-27T01:12:30.485Z,28.40
2018-11-27T01:14:59.622Z,22.27
2018-11-27T01:17:27.723Z,27.30
2018-11-27T01:22:39.251Z,29.40
2018-11-27T01:25:13.831Z,21.87
2018-11-27T01:30:44.859Z,24.20
2018-11-27T01:33:28.432Z,26.37
2018-11-27T01:36:04.630Z,24.30
2018-11-27T01:38:36.043Z,27.23
2018-11-27T01:41:05.238Z,25.87
2018-11-27T01:43:41.761Z,28.23
2018-11-27T01:46:10.325Z,24.60
2018-11-27T01:48:45.630Z,25.47
2018-11-27T01:51:14.145Z,24.53
2018-11-27T01:56:52.155Z,22.30
2018-11-27T02:02:04.406Z,22.17
2018-11-27T02:04:33.564Z,23.30
2018-11-27T02:07:09.794Z,23.10
2018-11-27T02:09:40.214Z,27.00
2018-11-27T02:12:09.379Z,25.67
2018-11-27T02:14:45.687Z,29.70
2018-11-27T02:17:15.767Z,30.57
2018-11-27T02:19:45.383Z,28.70
2018-11-27T02:22:14.073Z,28.23
2018-11-27T02:27:36.351Z,23.90
2018-11-27T02:33:08.489Z,26.83
2018-11-27T02:35:37.125Z,28.53
2018-11-27T02:38:07.037Z,26.00
2018-11-27T02:40:41.060Z,31.40
2018-11-27T02:43:31.321Z,25.90
2018-11-27T02:46:00.264Z,28.00
2018-11-27T02:48:29.478Z,29.60
2018-11-27T02:50:58.431Z,26.83
2018-11-27T02:53:28.905Z,27.70
2018-11-27T02:59:22.905Z,29.07
2018-11-27T03:01:51.744Z,31.50
2018-11-27T03:04:26.053Z,28.30
2018-11-27T03:07:10.036Z,28.67
2018-11-27T03:12:42.127Z,33.30
2018-11-27T03:15:12.762Z,29.03
2018-11-27T03:17:41.731Z,28.37
2018-11-27T03:20:12.075Z,30.03
2018-11-27T03:22:43.343Z,30.90
2018-11-27T03:28:24.223Z,32.17
2018-11-27T03:30:56.819Z,26.63
2018-11-27T03:33:25.342Z,24.30
2018-11-27T03:39:09.128Z,26.10
2018-11-27T03:41:39.312Z,35.93
2018-11-27T03:44:08.170Z,29.03
2018-11-27T03:46:37.472Z,27.73
2018-11-27T03:52:10.779Z,27.77
2018-11-27T03:54:39.197Z,29.87
2018-11-27T03:57:08.646Z,33.60
2018-11-27T03:59:38.340Z,33.27
2018-11-27T04:02:25.000Z,32.83
2018-11-27T04:04:53.945Z,28.30
2018-11-27T04:10:20.105Z,31.03
2018-11-27T04:15:48.874Z,29.00
2018-11-27T04:18:18.034Z,32.77
2018-11-27T04:20:47.184Z,29.30
2018-11-27T04:23:15.870Z,30.87
2018-11-27T04:26:03.995Z,38.03
2018-11-27T04:28:34.812Z,32.27
2018-11-27T04:34:24.027Z,35.20
2018-11-27T04:36:54.654Z,33.30
2018-11-27T04:39:23.083Z,31.90
2018-11-27T04:41:52.958Z,27.20
2018-11-27T04:44:23.990Z,33.43
2018-11-27T04:47:02.619Z,36.33
2018-11-27T04:49:32.286Z,32.90
2018-11-27T04:52:00.754Z,31.17
2018-11-27T04:54:31.384Z,28.30
2018-11-27T04:57:00.239Z,30.87
2018-11-27T04:59:28.987Z,27.63
2018-11-27T05:01:57.719Z,36.93
2018-11-27T05:04:26.417Z,33.50
2018-11-27T05:07:10.869Z,31.63
2018-11-27T05:12:53.982Z,31.20
2018-11-27T05:18:34.822Z,34.13
2018-11-27T05:21:22.784Z,30.80
2018-11-27T05:23:52.391Z,35.47
2018-11-27T05:29:21.425Z,33.40
2018-11-27T05:32:14.858Z,35.07
2018-11-27T05:43:46.816Z,38.00
2018-11-27T05:46:33.865Z,40.33
2018-11-27T05:49:04.187Z,33.27
2018-11-27T05:51:33.586Z,32.17
2018-11-27T05:54:10.370Z,33.93
2018-11-27T05:56:40.371Z,34.70
2018-11-27T05:59:16.431Z,33.83
2018-11-27T06:01:54.161Z,37.50
2018-11-27T06:04:38.770Z,37.47
2018-11-27T06:07:12.921Z,34.40
2018-11-27T06:10:01.131Z,49.13
2018-11-27T06:15:40.665Z,37.10
2018-11-27T06:20:46.647Z,39.13
2018-11-27T06:23:17.161Z,36.90
2018-11-27T06:25:46.669Z,34.83
2018-11-27T06:28:21.931Z,35.27
2018-11-27T06:31:06.991Z,43.67
2018-11-27T06:33:45.261Z,36.10
2018-11-27T06:36:38.015Z,28.93
2018-11-27T06:39:14.485Z,39.53
2018-11-27T06:54:12.383Z,30.17
2018-11-27T07:05:49.019Z,35.40
2018-11-27T07:08:19.061Z,38.03
2018-11-27T07:11:08.865Z,37.77
2018-11-27T07:13:37.280Z,36.10
2018-11-27T07:19:06.507Z,37.40
2018-11-27T07:24:39.450Z,31.50
2018-11-27T07:27:07.514Z,34.47
2018-11-27T07:29:36.796Z,33.80
2018-11-27T07:32:09.537Z,28.80
2018-11-27T07:34:36.401Z,37.63
2018-11-27T07:37:05.456Z,31.23
2018-11-27T07:39:33.878Z,28.90
2018-11-27T07:42:01.636Z,37.53
2018-11-27T07:44:29.988Z,35.37
2018-11-27T07:47:05.057Z,32.43
2018-11-27T07:52:26.952Z,38.17
2018-11-27T07:54:55.006Z,37.20
2018-11-27T07:57:27.730Z,33.50
2018-11-27T07:59:55.868Z,32.00
2018-11-27T08:02:24.748Z,31.00
2018-11-27T08:08:02.859Z,31.43
2018-11-27T08:19:40.316Z,41.20
2018-11-27T08:22:23.447Z,29.90
2018-11-27T08:27:43.938Z,30.27
2018-11-27T08:30:15.521Z,31.77
2018-11-27T08:35:52.137Z,32.77
2018-11-27T08:38:23.306Z,29.03
2018-11-27T08:40:52.724Z,34.17
2018-11-27T08:43:33.430Z,32.93
2018-11-27T08:46:04.987Z,27.97
2018-11-27T08:48:39.799Z,26.37
2018-11-27T08:51:07.965Z,35.47
2018-11-27T08:53:35.938Z,33.80
2018-11-27T08:56:22.011Z,31.93
2018-11-27T08:58:51.174Z,37.47
2018-11-27T09:04:22.061Z,42.83
2018-11-27T09:06:49.949Z,36.60
2018-11-27T09:09:32.412Z,32.63
2018-11-27T09:12:09.311Z,34.33
2018-11-27T09:17:47.603Z,34.33
2018-11-27T09:29:42.484Z,31.60
2018-11-27T09:32:18.726Z,36.20
2018-11-27T09:34:47.778Z,33.97
2018-11-27T09:37:36.467Z,41.70
2018-11-27T09:49:10.323Z,40.93
2018-11-27T09:51:46.093Z,35.80
2018-11-27T09:57:18.483Z,37.47
2018-11-27T10:02:54.883Z,35.53
2018-11-27T10:05:37.061Z,36.00
2018-11-27T10:17:39.105Z,34.87
2018-11-27T10:20:22.741Z,39.43
2018-11-27T10:22:51.440Z,38.00
2018-11-27T10:25:19.577Z,41.43
2018-11-27T10:27:55.064Z,36.37
2018-11-27T10:33:23.088Z,50.60
2018-11-27T10:48:01.151Z,42.67
2018-11-27T10:56:38.311Z,40.10
2018-11-27T10:59:18.781Z,44.03
2018-11-27T11:01:56.515Z,38.97
2018-11-27T11:07:27.523Z,37.83
2018-11-27T11:16:14.053Z,43.13
2018-11-27T11:18:42.787Z,41.90
2018-11-27T11:21:13.034Z,43.40
2018-11-27T11:26:44.053Z,43.47
2018-11-27T11:29:18.019Z,45.33
2018-11-27T11:34:56.528Z,42.33
2018-11-27T11:37:26.979Z,58.97
2018-11-27T11:45:37.032Z,58.33
2018-11-27T11:48:06.998Z,41.60
2018-11-27T11:50:53.310Z,40.43
2018-11-27T11:53:21.065Z,42.47
2018-11-27T11:55:49.961Z,44.20
2018-11-27T11:58:19.182Z,43.13
2018-11-27T12:06:55.203Z,47.13
2018-11-27T12:21:15.733Z,47.50
2018-11-27T12:29:20.166Z,43.83
2018-11-27T12:31:55.919Z,45.83
2018-11-27T12:34:42.184Z,40.30
2018-11-27T12:40:22.680Z,47.67
2018-11-27T12:46:11.396Z,49.07
2018-11-27T12:49:01.966Z,48.10
2018-11-27T12:51:48.603Z,52.63
2018-11-27T12:54:19.457Z,48.07
2018-11-27T12:57:04.143Z,48.10
2018-11-27T12:59:37.754Z,45.03
2018-11-27T13:02:06.044Z,46.80
2018-11-27T13:04:33.984Z,55.20
2018-11-27T13:07:03.643Z,53.63
2018-11-27T13:09:32.356Z,56.10
2018-11-27T13:12:17.183Z,50.13
2018-11-27T13:17:49.406Z,47.97
2018-11-27T13:20:19.309Z,75.83
2018-11-27T13:22:48.078Z,48.03
2018-11-27T13:25:29.154Z,53.93
2018-11-27T13:27:59.197Z,53.17
2018-11-27T13:30:41.702Z,50.13
2018-11-27T13:33:13.543Z,50.90
2018-11-27T13:35:42.020Z,53.17
2018-11-27T13:38:19.833Z,48.13
2018-11-27T13:40:48.365Z,47.67
2018-11-27T13:43:26.494Z,44.27
2018-11-27T13:57:25.277Z,44.50
2018-11-27T14:02:53.890Z,45.53
2018-11-27T14:05:30.079Z,49.43
2018-11-27T14:07:58.044Z,56.37
2018-11-27T14:10:25.898Z,48.87
2018-11-27T14:12:54.195Z,65.83
2018-11-27T14:15:24.448Z,49.03
2018-11-27T14:18:03.143Z,47.17
2018-11-27T14:20:31.091Z,46.80
2018-11-27T14:22:58.850Z,54.53
2018-11-27T14:25:45.835Z,50.80
2018-11-27T14:28:14.083Z,54.90
2018-11-27T14:33:45.351Z,47.30
2018-11-27T14:36:13.178Z,47.63
2018-11-27T14:38:45.397Z,49.87
2018-11-27T14:41:25.610Z,47.97
2018-11-27T14:43:57.723Z,52.57
2018-11-27T14:46:26.244Z,52.13
2018-11-27T14:48:58.615Z,53.97
2018-11-27T14:51:26.662Z,54.40
2018-11-27T14:53:54.660Z,54.53
2018-11-27T14:56:25.022Z,49.57
2018-11-27T14:58:56.228Z,53.90
2018-11-27T15:01:28.817Z,43.87
2018-11-27T15:07:00.080Z,50.87
2018-11-27T15:09:28.268Z,51.73
2018-11-27T15:12:03.352Z,49.90
2018-11-27T15:17:57.813Z,49.57
2018-11-27T15:20:26.793Z,45.87
2018-11-27T15:22:54.613Z,47.30
2018-11-27T15:25:22.845Z,52.50
2018-11-27T15:27:51.902Z,51.07
2018-11-27T15:30:28.292Z,49.43
2018-11-27T15:33:02.643Z,52.83
2018-11-27T15:35:30.502Z,50.63
2018-11-27T15:38:16.174Z,50.50
2018-11-27T15:40:54.815Z,45.60
2018-11-27T15:43:24.361Z,49.70
2018-11-27T15:45:54.022Z,46.03
2018-11-27T15:48:22.619Z,48.33
2018-11-27T15:50:50.716Z,43.23
2018-11-27T15:53:21.055Z,41.17
2018-11-27T15:56:09.242Z,46.77
2018-11-27T15:58:40.070Z,45.77
2018-11-27T16:01:08.526Z,39.17
2018-11-27T16:03:36.689Z,47.03
2018-11-27T16:06:05.316Z,47.13
2018-11-27T16:08:34.910Z,42.10
2018-11-27T16:11:03.596Z,42.70
2018-11-27T16:13:33.677Z,43.10
2018-11-27T16:16:05.914Z,42.40
2018-11-27T16:18:35.092Z,48.60
2018-11-27T16:21:05.960Z,46.13
2018-11-27T16:23:34.399Z,48.70
2018-11-27T16:26:02.627Z,50.70
2018-11-27T16:28:37.455Z,46.93
2018-11-27T16:31:07.120Z,55.57
2018-11-27T16:33:45.285Z,70.10
2018-11-27T16:36:14.442Z,64.90
2018-11-27T16:38:42.608Z,55.30
2018-11-27T16:41:10.789Z,41.97
2018-11-27T16:46:40.420Z,50.17
2018-11-27T16:49:08.389Z,48.00
2018-11-27T16:51:38.795Z,47.27
2018-11-27T16:54:07.214Z,48.13
2018-11-27T16:59:44.749Z,46.73
2018-11-27T17:02:12.643Z,46.90
2018-11-27T17:04:55.129Z,43.63
2018-11-27T17:07:33.233Z,44.87
2018-11-27T17:10:00.931Z,48.33
2018-11-27T17:15:23.271Z,42.40
2018-11-27T17:17:51.024Z,46.07
2018-11-27T17:20:35.457Z,47.23
2018-11-27T17:23:05.235Z,48.47
2018-11-27T17:25:35.313Z,47.60
2018-11-27T17:28:06.753Z,40.90
2018-11-27T17:30:43.593Z,41.30
2018-11-27T17:33:34.145Z,42.60
2018-11-27T17:41:56.872Z,44.70
2018-11-27T17:44:25.978Z,41.70
2018-11-27T17:46:54.351Z,48.20
2018-11-27T17:49:38.436Z,41.13
2018-11-27T17:52:06.484Z,40.80
2018-11-27T17:54:40.912Z,41.50
2018-11-27T18:00:25.111Z,40.53
2018-11-27T18:02:55.271Z,41.00
2018-11-27T18:05:23.857Z,42.30
2018-11-27T18:10:35.798Z,43.57
2018-11-27T18:13:06.466Z,50.27
2018-11-27T18:15:36.819Z,63.83
2018-11-27T18:18:28.035Z,57.13
2018-11-27T18:20:55.971Z,44.37
2018-11-27T18:26:36.743Z,40.63
2018-11-27T18:29:05.380Z,40.40
2018-11-27T18:31:33.421Z,46.93
2018-11-27T18:34:01.595Z,37.27
2018-11-27T18:39:33.287Z,47.93
2018-11-27T18:42:03.062Z,43.23
2018-11-27T18:44:31.082Z,48.20
2018-11-27T18:46:59.397Z,42.50
2018-11-27T18:49:27.678Z,44.57
2018-11-27T18:52:17.359Z,36.30
2018-11-27T19:09:46.753Z,42.30
2018-11-27T19:27:23.190Z,44.50
2018-11-27T19:35:30.331Z,45.00
2018-11-27T19:41:11.334Z,41.23
2018-11-27T19:43:45.741Z,42.47
2018-11-27T19:49:29.077Z,52.07
2018-11-27T19:51:58.284Z,40.37
2018-11-27T20:00:40.463Z,51.43
2018-11-27T20:09:16.235Z,63.07
2018-11-27T20:14:42.876Z,45.27
2018-11-27T20:31:32.766Z,39.13
2018-11-27T20:37:23.682Z,49.93
2018-11-27T20:46:19.388Z,43.63
2018-11-27T20:48:57.665Z,48.67
2018-11-27T20:51:27.584Z,38.63
2018-11-27T20:54:18.564Z,43.00
2018-11-27T20:59:51.388Z,55.10
2018-11-27T21:08:38.461Z,46.13
2018-11-27T21:18:27.958Z,68.30
2018-11-27T21:27:08.101Z,65.00
2018-11-27T21:29:58.970Z,76.23
2018-11-27T21:32:27.967Z,64.27
2018-11-27T21:35:02.963Z,47.03
2018-11-27T21:37:31.895Z,40.30
2018-11-27T21:40:08.949Z,46.90
2018-11-27T21:45:34.012Z,42.83
2018-11-27T21:48:02.825Z,43.30
2018-11-27T21:59:34.077Z,42.00
2018-11-27T22:02:15.650Z,51.17
2018-11-27T22:07:35.914Z,44.73
2018-11-27T22:10:10.554Z,46.53
2018-11-27T22:27:43.399Z,36.97
2018-11-27T22:39:29.630Z,49.57
2018-11-27T22:42:01.427Z,44.67
2018-11-27T22:53:40.740Z,46.83
2018-11-27T22:56:29.957Z,41.57
2018-11-27T23:02:18.672Z,38.03
2018-11-27T23:04:47.534Z,41.90
2018-11-27T23:07:23.209Z,46.67
2018-11-27T23:12:54.382Z,40.80
2018-11-27T23:27:35.712Z,44.27
